Cherryville, Missouri
Current Conditions -  °F | °C
As of 11:53 PM on Monday 20 Oct 2014 (Local Time) from KVIH Reporting Station
Clear Clear  
Wind Chill: 48°   Ceiling: Unl
Heat Index: 48°   Visibility: 10mi
Dew Point: 41°   Wind: 0mph
Humidity: 77%   Direction: NA
Pressure: 30.04"   Gusts: NA
Location:  37.85°N, 91.28°W
Report Text: KVIH 210453Z AUTO 00000KT 10SM CLR 09/05 A3004 RMK AO2 SLP171 T00890050
Loading
Personal Weather Stations






























Interactive Weather Map New forecast layout! Learn more

10-Day Weather Forecast

Advertisements
Track Severe Weather on mobile